Aeroporto :
LOGIN :

Iscrizione | Disclaimer

   EN    FR    IT 

 










Sommario :    VFR   VFR Marginale   IFR   IFR Intensivo   IFR Molto Intensivo
Visibilità : 
Base nubi : 
>= 8 km
>= 3000ft
5 / 8 km
1000 / 3000 ft
1500m / 5 km
500 / 1000 ft
800 / 1500m
200 / 500 ft
< 800m
< 200 ft
Simboli :   Temporali  Nebbia  Neve Forte  Precipitazioni Forti  Vento > 20 kt
SIGMETs :   Varie  Temporali  Ghiacco  Turbolenza  Onda orograficha  Ceneri Vulcaniche






- Altitudine del aeroporto : 468 ft
- Codice IATA : GRO


LEGE - Girona Costa Brava

ULTIMO METAR :
  • 171630Z 10005KT 070V150 9999 BKN027 OVC059 15/11 Q1024

METARs OBSOLETI :
  • 171600Z 08004KT 050V110 9999 BKN028 15/11 Q1024
  • 171530Z 10006KT 050V130 9999 BKN029 16/11 Q1024
  • 171500Z 07006KT 030V110 9999 FEW028 SCT035 17/11 Q1024
  • 171430Z 04006KT 010V100 9999 FEW028 17/11 Q1024
  • 171400Z 03008KT 010V070 9999 FEW009 SCT025 17/11 Q1023

TAF TAF LEGE
Valido dal 17 a 12 ore il 18 a 12 ore UTC


171100Z 1712/1812 VRB03KT 9999 FEW020 TX19/1714Z TN07/1806Z
TEMPO 1712/1718 04010KT
PROB40
TEMPO 1722/1808 3000 BR BKN015



MetMap, La meteo Aeronautica in un colpo d'occhio ! - Copyright ORBIFLY Dicembre 2007 - Disclaimer

ORBIFLY MET'MAP TEAM :

Programmazione e sviluppo : Alexandra Zaïnal
Concezione : Baudouin d'Aumeries
Aiuto per la programmazione : Marc-Olivier Méhu
Supporto tecnico e logistico : Manuel Goepfert
Aiuto per la traduzione : Arnaldo La Scala

Contatto : metmap@orbifly.com




FONTI E CREDITI :

   NOAA